sensor_id;sensor_type;location;lat;lon;timestamp;temperature;humidity
9446;DHT22;4761;49.490;10.908;2022-07-17T00:00:19;23.50;47.70
9446;DHT22;4761;49.490;10.908;2022-07-17T00:02:45;23.50;47.60
9446;DHT22;4761;49.490;10.908;2022-07-17T00:05:13;23.50;47.50
9446;DHT22;4761;49.490;10.908;2022-07-17T00:07:39;23.50;47.50
9446;DHT22;4761;49.490;10.908;2022-07-17T00:10:05;23.50;47.40
9446;DHT22;4761;49.490;10.908;2022-07-17T00:12:31;23.50;47.30
9446;DHT22;4761;49.490;10.908;2022-07-17T00:14:56;23.50;47.30
9446;DHT22;4761;49.490;10.908;2022-07-17T00:17:22;23.50;47.70
9446;DHT22;4761;49.490;10.908;2022-07-17T00:19:48;23.50;47.30
9446;DHT22;4761;49.490;10.908;2022-07-17T00:22:13;23.50;47.30
9446;DHT22;4761;49.490;10.908;2022-07-17T00:24:39;23.50;47.20
9446;DHT22;4761;49.490;10.908;2022-07-17T00:27:05;23.50;47.10
9446;DHT22;4761;49.490;10.908;2022-07-17T00:29:31;23.50;47.20
9446;DHT22;4761;49.490;10.908;2022-07-17T00:31:56;23.50;47.30
9446;DHT22;4761;49.490;10.908;2022-07-17T00:34:22;23.40;47.20
9446;DHT22;4761;49.490;10.908;2022-07-17T00:36:47;23.40;47.20
9446;DHT22;4761;49.490;10.908;2022-07-17T00:39:13;23.40;47.10
9446;DHT22;4761;49.490;10.908;2022-07-17T00:41:39;23.40;47.00
9446;DHT22;4761;49.490;10.908;2022-07-17T00:44:11;23.40;47.10
9446;DHT22;4761;49.490;10.908;2022-07-17T00:46:38;23.40;47.10
9446;DHT22;4761;49.490;10.908;2022-07-17T00:49:05;23.40;47.10
9446;DHT22;4761;49.490;10.908;2022-07-17T00:51:32;23.40;47.00
9446;DHT22;4761;49.490;10.908;2022-07-17T00:53:58;23.40;47.00
9446;DHT22;4761;49.490;10.908;2022-07-17T00:56:25;23.40;47.00
9446;DHT22;4761;49.490;10.908;2022-07-17T00:58:52;23.40;47.00
9446;DHT22;4761;49.490;10.908;2022-07-17T01:01:18;23.40;47.00
9446;DHT22;4761;49.490;10.908;2022-07-17T01:03:44;23.40;47.00
9446;DHT22;4761;49.490;10.908;2022-07-17T01:06:09;23.40;47.10
9446;DHT22;4761;49.490;10.908;2022-07-17T01:08:35;23.40;47.10
9446;DHT22;4761;49.490;10.908;2022-07-17T01:11:02;23.40;47.10
9446;DHT22;4761;49.490;10.908;2022-07-17T01:13:30;23.40;47.10
9446;DHT22;4761;49.490;10.908;2022-07-17T01:15:56;23.40;47.10
9446;DHT22;4761;49.490;10.908;2022-07-17T01:18:22;23.30;47.00
9446;DHT22;4761;49.490;10.908;2022-07-17T01:20:49;23.30;47.00
9446;DHT22;4761;49.490;10.908;2022-07-17T01:23:16;23.30;47.10
9446;DHT22;4761;49.490;10.908;2022-07-17T01:25:43;23.30;47.00
9446;DHT22;4761;49.490;10.908;2022-07-17T01:28:08;23.30;47.00
9446;DHT22;4761;49.490;10.908;2022-07-17T01:30:35;23.30;47.10
9446;DHT22;4761;49.490;10.908;2022-07-17T01:33:01;23.30;47.00
9446;DHT22;4761;49.490;10.908;2022-07-17T01:35:26;23.30;47.10
9446;DHT22;4761;49.490;10.908;2022-07-17T01:37:52;23.30;47.00
9446;DHT22;4761;49.490;10.908;2022-07-17T01:40:18;23.30;47.00
9446;DHT22;4761;49.490;10.908;2022-07-17T01:42:46;23.30;47.00
9446;DHT22;4761;49.490;10.908;2022-07-17T01:45:12;23.20;46.90
9446;DHT22;4761;49.490;10.908;2022-07-17T01:47:38;23.30;47.00
9446;DHT22;4761;49.490;10.908;2022-07-17T01:50:05;23.30;46.90
9446;DHT22;4761;49.490;10.908;2022-07-17T01:52:34;23.20;46.90
9446;DHT22;4761;49.490;10.908;2022-07-17T01:54:59;23.30;47.00
9446;DHT22;4761;49.490;10.908;2022-07-17T01:57:25;23.30;46.90
9446;DHT22;4761;49.490;10.908;2022-07-17T01:59:50;23.30;46.90
9446;DHT22;4761;49.490;10.908;2022-07-17T02:02:16;23.30;46.80
9446;DHT22;4761;49.490;10.908;2022-07-17T02:04:42;23.30;46.80
9446;DHT22;4761;49.490;10.908;2022-07-17T02:07:09;23.20;46.70
9446;DHT22;4761;49.490;10.908;2022-07-17T02:09:35;23.20;46.60
9446;DHT22;4761;49.490;10.908;2022-07-17T02:12:00;23.30;46.60
9446;DHT22;4761;49.490;10.908;2022-07-17T02:14:26;23.20;46.60
9446;DHT22;4761;49.490;10.908;2022-07-17T02:16:52;23.30;46.70
9446;DHT22;4761;49.490;10.908;2022-07-17T02:19:18;23.30;46.60
9446;DHT22;4761;49.490;10.908;2022-07-17T02:21:44;23.30;46.60
9446;DHT22;4761;49.490;10.908;2022-07-17T02:24:09;23.20;46.50
9446;DHT22;4761;49.490;10.908;2022-07-17T02:26:35;23.30;46.70
9446;DHT22;4761;49.490;10.908;2022-07-17T02:29:01;23.20;46.50
9446;DHT22;4761;49.490;10.908;2022-07-17T02:31:26;23.20;46.60
9446;DHT22;4761;49.490;10.908;2022-07-17T02:33:52;23.20;46.60
9446;DHT22;4761;49.490;10.908;2022-07-17T02:36:17;23.20;46.50
9446;DHT22;4761;49.490;10.908;2022-07-17T02:38:43;23.20;46.60
9446;DHT22;4761;49.490;10.908;2022-07-17T02:41:08;23.20;46.60
9446;DHT22;4761;49.490;10.908;2022-07-17T02:43:34;23.20;46.60
9446;DHT22;4761;49.490;10.908;2022-07-17T02:46:01;23.10;46.50
9446;DHT22;4761;49.490;10.908;2022-07-17T02:48:27;23.20;46.70
9446;DHT22;4761;49.490;10.908;2022-07-17T02:50:52;23.10;46.60
9446;DHT22;4761;49.490;10.908;2022-07-17T02:53:18;23.20;46.80
9446;DHT22;4761;49.490;10.908;2022-07-17T02:55:43;23.10;46.70
9446;DHT22;4761;49.490;10.908;2022-07-17T02:58:09;23.10;46.70
9446;DHT22;4761;49.490;10.908;2022-07-17T03:00:34;23.20;46.70
9446;DHT22;4761;49.490;10.908;2022-07-17T03:03:00;23.20;46.70
9446;DHT22;4761;49.490;10.908;2022-07-17T03:05:25;23.10;46.60
9446;DHT22;4761;49.490;10.908;2022-07-17T03:07:51;23.10;46.60
9446;DHT22;4761;49.490;10.908;2022-07-17T03:10:17;23.10;46.60
9446;DHT22;4761;49.490;10.908;2022-07-17T03:12:43;23.10;46.60
9446;DHT22;4761;49.490;10.908;2022-07-17T03:15:09;23.10;46.70
9446;DHT22;4761;49.490;10.908;2022-07-17T03:17:35;23.10;46.60
9446;DHT22;4761;49.490;10.908;2022-07-17T03:20:02;23.10;46.70
9446;DHT22;4761;49.490;10.908;2022-07-17T03:22:28;23.10;46.70
9446;DHT22;4761;49.490;10.908;2022-07-17T03:24:54;23.10;46.60
9446;DHT22;4761;49.490;10.908;2022-07-17T03:27:19;23.10;46.70
9446;DHT22;4761;49.490;10.908;2022-07-17T03:29:45;23.10;46.60
9446;DHT22;4761;49.490;10.908;2022-07-17T03:32:11;23.10;46.60
9446;DHT22;4761;49.490;10.908;2022-07-17T03:34:37;23.10;46.60
9446;DHT22;4761;49.490;10.908;2022-07-17T03:37:03;23.10;46.60
9446;DHT22;4761;49.490;10.908;2022-07-17T03:39:29;23.10;46.70
9446;DHT22;4761;49.490;10.908;2022-07-17T03:41:55;23.10;46.50
9446;DHT22;4761;49.490;10.908;2022-07-17T03:44:21;23.10;46.50
9446;DHT22;4761;49.490;10.908;2022-07-17T03:46:47;23.10;46.50
9446;DHT22;4761;49.490;10.908;2022-07-17T03:49:12;23.10;46.50
9446;DHT22;4761;49.490;10.908;2022-07-17T03:51:38;23.10;46.60
9446;DHT22;4761;49.490;10.908;2022-07-17T03:54:04;23.10;46.50
9446;DHT22;4761;49.490;10.908;2022-07-17T03:56:29;23.10;46.50
9446;DHT22;4761;49.490;10.908;2022-07-17T03:58:55;23.10;46.50
9446;DHT22;4761;49.490;10.908;2022-07-17T04:01:20;23.10;46.40
9446;DHT22;4761;49.490;10.908;2022-07-17T04:03:46;23.10;46.50
9446;DHT22;4761;49.490;10.908;2022-07-17T04:06:12;23.10;46.50
9446;DHT22;4761;49.490;10.908;2022-07-17T04:08:37;23.10;46.50
9446;DHT22;4761;49.490;10.908;2022-07-17T04:11:03;23.00;46.50
9446;DHT22;4761;49.490;10.908;2022-07-17T04:13:29;23.00;46.50
9446;DHT22;4761;49.490;10.908;2022-07-17T04:15:54;23.00;46.50
9446;DHT22;4761;49.490;10.908;2022-07-17T04:18:25;23.00;46.50
9446;DHT22;4761;49.490;10.908;2022-07-17T04:20:52;23.00;46.70
9446;DHT22;4761;49.490;10.908;2022-07-17T04:23:18;23.00;46.70
9446;DHT22;4761;49.490;10.908;2022-07-17T04:25:44;23.00;46.70
9446;DHT22;4761;49.490;10.908;2022-07-17T04:28:10;23.00;46.60
9446;DHT22;4761;49.490;10.908;2022-07-17T04:30:36;23.00;46.60
9446;DHT22;4761;49.490;10.908;2022-07-17T04:33:02;23.00;46.50
9446;DHT22;4761;49.490;10.908;2022-07-17T04:35:28;23.00;46.40
9446;DHT22;4761;49.490;10.908;2022-07-17T04:37:54;23.00;46.40
9446;DHT22;4761;49.490;10.908;2022-07-17T04:40:20;23.10;46.40
9446;DHT22;4761;49.490;10.908;2022-07-17T04:42:45;23.10;46.40
9446;DHT22;4761;49.490;10.908;2022-07-17T04:45:11;23.10;46.40
9446;DHT22;4761;49.490;10.908;2022-07-17T04:47:36;23.10;46.40
9446;DHT22;4761;49.490;10.908;2022-07-17T04:50:02;23.10;46.40
9446;DHT22;4761;49.490;10.908;2022-07-17T04:52:28;23.10;46.40
9446;DHT22;4761;49.490;10.908;2022-07-17T04:54:53;23.10;46.30
9446;DHT22;4761;49.490;10.908;2022-07-17T04:57:19;23.10;46.40
9446;DHT22;4761;49.490;10.908;2022-07-17T04:59:45;23.10;46.40
9446;DHT22;4761;49.490;10.908;2022-07-17T05:02:10;23.10;46.30
9446;DHT22;4761;49.490;10.908;2022-07-17T05:04:36;23.10;46.30
9446;DHT22;4761;49.490;10.908;2022-07-17T05:07:02;23.10;46.40
9446;DHT22;4761;49.490;10.908;2022-07-17T05:09:28;23.10;46.40
9446;DHT22;4761;49.490;10.908;2022-07-17T05:11:53;23.10;46.40
9446;DHT22;4761;49.490;10.908;2022-07-17T05:14:19;23.10;46.40
9446;DHT22;4761;49.490;10.908;2022-07-17T05:16:44;23.10;46.30
9446;DHT22;4761;49.490;10.908;2022-07-17T05:19:10;23.10;46.20
9446;DHT22;4761;49.490;10.908;2022-07-17T05:21:35;23.10;46.30
9446;DHT22;4761;49.490;10.908;2022-07-17T05:24:01;23.10;46.20
9446;DHT22;4761;49.490;10.908;2022-07-17T05:26:27;23.20;46.40
9446;DHT22;4761;49.490;10.908;2022-07-17T05:28:52;23.20;46.30
9446;DHT22;4761;49.490;10.908;2022-07-17T05:31:18;23.20;46.30
9446;DHT22;4761;49.490;10.908;2022-07-17T05:33:43;23.20;46.30
9446;DHT22;4761;49.490;10.908;2022-07-17T05:36:09;23.20;46.30
9446;DHT22;4761;49.490;10.908;2022-07-17T05:38:35;23.20;46.30
9446;DHT22;4761;49.490;10.908;2022-07-17T05:41:00;23.20;46.30
9446;DHT22;4761;49.490;10.908;2022-07-17T05:43:26;23.20;46.30
9446;DHT22;4761;49.490;10.908;2022-07-17T05:45:55;23.30;46.40
9446;DHT22;4761;49.490;10.908;2022-07-17T05:48:21;23.20;46.30
9446;DHT22;4761;49.490;10.908;2022-07-17T05:50:47;23.30;46.30
9446;DHT22;4761;49.490;10.908;2022-07-17T05:53:12;23.30;46.40
9446;DHT22;4761;49.490;10.908;2022-07-17T05:55:39;23.30;46.60
9446;DHT22;4761;49.490;10.908;2022-07-17T05:58:06;23.30;46.50
9446;DHT22;4761;49.490;10.908;2022-07-17T06:00:31;23.30;46.50
9446;DHT22;4761;49.490;10.908;2022-07-17T06:02:57;23.30;46.50
9446;DHT22;4761;49.490;10.908;2022-07-17T06:05:23;23.30;46.50
9446;DHT22;4761;49.490;10.908;2022-07-17T06:07:48;23.30;46.50
9446;DHT22;4761;49.490;10.908;2022-07-17T06:10:14;23.30;46.50
9446;DHT22;4761;49.490;10.908;2022-07-17T06:12:39;23.30;46.40
9446;DHT22;4761;49.490;10.908;2022-07-17T06:15:05;23.40;46.40
9446;DHT22;4761;49.490;10.908;2022-07-17T06:17:31;23.40;46.50
9446;DHT22;4761;49.490;10.908;2022-07-17T06:19:56;23.40;46.40
9446;DHT22;4761;49.490;10.908;2022-07-17T06:22:22;23.40;46.50
9446;DHT22;4761;49.490;10.908;2022-07-17T06:24:48;23.40;46.50
9446;DHT22;4761;49.490;10.908;2022-07-17T06:27:14;23.40;46.40
9446;DHT22;4761;49.490;10.908;2022-07-17T06:29:39;23.40;46.30
9446;DHT22;4761;49.490;10.908;2022-07-17T06:32:05;23.40;46.40
9446;DHT22;4761;49.490;10.908;2022-07-17T06:34:31;23.40;46.40
9446;DHT22;4761;49.490;10.908;2022-07-17T06:36:56;23.40;46.40
9446;DHT22;4761;49.490;10.908;2022-07-17T06:39:22;23.50;46.50
9446;DHT22;4761;49.490;10.908;2022-07-17T06:41:48;23.50;46.40
9446;DHT22;4761;49.490;10.908;2022-07-17T06:44:13;23.50;46.40
9446;DHT22;4761;49.490;10.908;2022-07-17T06:46:39;23.50;46.40
9446;DHT22;4761;49.490;10.908;2022-07-17T06:49:04;23.50;46.30
9446;DHT22;4761;49.490;10.908;2022-07-17T06:51:30;23.50;46.30
9446;DHT22;4761;49.490;10.908;2022-07-17T06:53:55;23.50;46.30
9446;DHT22;4761;49.490;10.908;2022-07-17T06:56:21;23.50;46.20
9446;DHT22;4761;49.490;10.908;2022-07-17T06:58:47;23.50;46.20
9446;DHT22;4761;49.490;10.908;2022-07-17T07:01:12;23.60;46.30
9446;DHT22;4761;49.490;10.908;2022-07-17T07:03:38;23.60;46.30
9446;DHT22;4761;49.490;10.908;2022-07-17T07:06:03;23.60;46.20
9446;DHT22;4761;49.490;10.908;2022-07-17T07:08:29;23.60;46.20
9446;DHT22;4761;49.490;10.908;2022-07-17T07:10:55;23.60;46.20
9446;DHT22;4761;49.490;10.908;2022-07-17T07:13:20;23.60;46.20
9446;DHT22;4761;49.490;10.908;2022-07-17T07:15:46;23.60;46.20
9446;DHT22;4761;49.490;10.908;2022-07-17T07:18:12;23.60;46.30
9446;DHT22;4761;49.490;10.908;2022-07-17T07:20:37;23.60;46.30
9446;DHT22;4761;49.490;10.908;2022-07-17T07:23:03;23.60;46.30
9446;DHT22;4761;49.490;10.908;2022-07-17T07:25:30;23.70;46.40
9446;DHT22;4761;49.490;10.908;2022-07-17T07:27:56;23.70;46.40
9446;DHT22;4761;49.490;10.908;2022-07-17T07:30:21;23.70;46.20
9446;DHT22;4761;49.490;10.908;2022-07-17T07:32:47;23.70;46.30
9446;DHT22;4761;49.490;10.908;2022-07-17T07:35:12;23.60;46.20
9446;DHT22;4761;49.490;10.908;2022-07-17T07:37:38;23.70;46.20
9446;DHT22;4761;49.490;10.908;2022-07-17T07:40:05;23.70;46.10
9446;DHT22;4761;49.490;10.908;2022-07-17T07:42:32;23.70;46.20
9446;DHT22;4761;49.490;10.908;2022-07-17T07:44:58;23.70;46.00
9446;DHT22;4761;49.490;10.908;2022-07-17T07:47:23;23.80;45.90
9446;DHT22;4761;49.490;10.908;2022-07-17T07:49:50;23.80;45.90
9446;DHT22;4761;49.490;10.908;2022-07-17T07:52:15;23.80;45.70
9446;DHT22;4761;49.490;10.908;2022-07-17T07:54:41;23.80;45.70
9446;DHT22;4761;49.490;10.908;2022-07-17T07:57:07;23.80;45.80
9446;DHT22;4761;49.490;10.908;2022-07-17T07:59:32;23.80;45.90
9446;DHT22;4761;49.490;10.908;2022-07-17T08:01:58;23.80;45.80
9446;DHT22;4761;49.490;10.908;2022-07-17T08:04:24;23.80;45.70
9446;DHT22;4761;49.490;10.908;2022-07-17T08:06:50;23.80;45.60
9446;DHT22;4761;49.490;10.908;2022-07-17T08:09:15;23.80;45.50
9446;DHT22;4761;49.490;10.908;2022-07-17T08:11:41;23.80;45.50
9446;DHT22;4761;49.490;10.908;2022-07-17T08:14:07;23.80;45.70
9446;DHT22;4761;49.490;10.908;2022-07-17T08:16:32;23.80;45.70
9446;DHT22;4761;49.490;10.908;2022-07-17T08:18:58;23.80;45.70
9446;DHT22;4761;49.490;10.908;2022-07-17T08:21:23;23.90;45.80
9446;DHT22;4761;49.490;10.908;2022-07-17T08:23:49;23.80;45.70
9446;DHT22;4761;49.490;10.908;2022-07-17T08:26:15;23.90;45.70
9446;DHT22;4761;49.490;10.908;2022-07-17T08:28:40;23.90;45.70
9446;DHT22;4761;49.490;10.908;2022-07-17T08:31:06;23.90;45.70
9446;DHT22;4761;49.490;10.908;2022-07-17T08:33:31;23.90;45.80
9446;DHT22;4761;49.490;10.908;2022-07-17T08:35:57;23.90;45.50
9446;DHT22;4761;49.490;10.908;2022-07-17T08:38:23;23.90;45.20
9446;DHT22;4761;49.490;10.908;2022-07-17T08:40:49;23.90;45.50
9446;DHT22;4761;49.490;10.908;2022-07-17T08:43:17;23.90;45.50
9446;DHT22;4761;49.490;10.908;2022-07-17T08:45:43;23.90;45.60
9446;DHT22;4761;49.490;10.908;2022-07-17T08:48:12;23.90;45.60
9446;DHT22;4761;49.490;10.908;2022-07-17T08:50:39;24.00;45.60
9446;DHT22;4761;49.490;10.908;2022-07-17T08:53:05;24.00;45.70
9446;DHT22;4761;49.490;10.908;2022-07-17T08:55:31;24.00;45.60
9446;DHT22;4761;49.490;10.908;2022-07-17T08:57:57;24.00;45.70
9446;DHT22;4761;49.490;10.908;2022-07-17T09:00:23;24.00;45.60
9446;DHT22;4761;49.490;10.908;2022-07-17T09:03:04;24.00;45.60
9446;DHT22;4761;49.490;10.908;2022-07-17T09:05:36;24.00;45.60
9446;DHT22;4761;49.490;10.908;2022-07-17T09:08:03;23.90;45.50
9446;DHT22;4761;49.490;10.908;2022-07-17T09:10:41;23.90;45.50
9446;DHT22;4761;49.490;10.908;2022-07-17T09:15:40;24.00;45.60
9446;DHT22;4761;49.490;10.908;2022-07-17T09:18:05;24.00;45.50
9446;DHT22;4761;49.490;10.908;2022-07-17T09:20:31;24.00;45.50
9446;DHT22;4761;49.490;10.908;2022-07-17T09:23:02;24.10;45.60
9446;DHT22;4761;49.490;10.908;2022-07-17T09:25:48;24.10;45.80
9446;DHT22;4761;49.490;10.908;2022-07-17T09:28:15;24.10;45.40
9446;DHT22;4761;49.490;10.908;2022-07-17T09:30:52;24.10;45.50
9446;DHT22;4761;49.490;10.908;2022-07-17T09:33:23;24.10;45.50
9446;DHT22;4761;49.490;10.908;2022-07-17T09:35:51;24.10;45.50
9446;DHT22;4761;49.490;10.908;2022-07-17T09:38:32;24.10;45.40
9446;DHT22;4761;49.490;10.908;2022-07-17T09:41:25;24.10;45.40
9446;DHT22;4761;49.490;10.908;2022-07-17T09:43:53;24.10;45.60
9446;DHT22;4761;49.490;10.908;2022-07-17T09:46:25;24.10;45.40
9446;DHT22;4761;49.490;10.908;2022-07-17T09:48:54;24.10;45.40
9446;DHT22;4761;49.490;10.908;2022-07-17T09:51:23;24.10;45.40
9446;DHT22;4761;49.490;10.908;2022-07-17T09:53:51;24.10;45.40
9446;DHT22;4761;49.490;10.908;2022-07-17T09:56:19;24.10;45.40
9446;DHT22;4761;49.490;10.908;2022-07-17T09:58:48;24.10;45.40
9446;DHT22;4761;49.490;10.908;2022-07-17T10:01:15;24.10;45.40
9446;DHT22;4761;49.490;10.908;2022-07-17T10:03:42;24.10;45.40
9446;DHT22;4761;49.490;10.908;2022-07-17T10:06:11;24.10;45.30
9446;DHT22;4761;49.490;10.908;2022-07-17T10:08:38;24.10;45.30
9446;DHT22;4761;49.490;10.908;2022-07-17T10:11:08;24.10;45.30
9446;DHT22;4761;49.490;10.908;2022-07-17T10:13:40;24.10;45.30
9446;DHT22;4761;49.490;10.908;2022-07-17T10:16:07;24.10;45.30
9446;DHT22;4761;49.490;10.908;2022-07-17T10:18:44;24.10;45.30
9446;DHT22;4761;49.490;10.908;2022-07-17T10:21:13;24.10;45.20
9446;DHT22;4761;49.490;10.908;2022-07-17T10:23:41;24.10;45.30
9446;DHT22;4761;49.490;10.908;2022-07-17T10:26:06;24.10;45.20
9446;DHT22;4761;49.490;10.908;2022-07-17T10:28:59;24.10;45.30
9446;DHT22;4761;49.490;10.908;2022-07-17T10:31:29;24.10;45.30
9446;DHT22;4761;49.490;10.908;2022-07-17T10:33:59;24.10;45.10
9446;DHT22;4761;49.490;10.908;2022-07-17T10:36:40;24.20;45.10
9446;DHT22;4761;49.490;10.908;2022-07-17T10:39:13;24.20;45.10
9446;DHT22;4761;49.490;10.908;2022-07-17T10:41:40;24.20;45.10
9446;DHT22;4761;49.490;10.908;2022-07-17T10:44:06;24.20;45.20
9446;DHT22;4761;49.490;10.908;2022-07-17T10:46:32;24.20;45.20
9446;DHT22;4761;49.490;10.908;2022-07-17T10:48:57;24.20;45.20
9446;DHT22;4761;49.490;10.908;2022-07-17T10:51:27;24.20;45.20
9446;DHT22;4761;49.490;10.908;2022-07-17T10:53:58;24.20;45.20
9446;DHT22;4761;49.490;10.908;2022-07-17T10:56:27;24.20;45.10
9446;DHT22;4761;49.490;10.908;2022-07-17T10:58:53;24.20;45.10
9446;DHT22;4761;49.490;10.908;2022-07-17T11:01:20;24.20;45.20
9446;DHT22;4761;49.490;10.908;2022-07-17T11:04:00;24.20;45.10
9446;DHT22;4761;49.490;10.908;2022-07-17T11:06:30;24.20;45.10
9446;DHT22;4761;49.490;10.908;2022-07-17T11:09:03;24.20;45.10
9446;DHT22;4761;49.490;10.908;2022-07-17T11:17:00;24.20;45.20
9446;DHT22;4761;49.490;10.908;2022-07-17T11:19:38;24.20;45.10
9446;DHT22;4761;49.490;10.908;2022-07-17T11:22:06;24.20;45.10
9446;DHT22;4761;49.490;10.908;2022-07-17T11:24:42;24.20;45.10
9446;DHT22;4761;49.490;10.908;2022-07-17T11:27:17;24.30;45.10
9446;DHT22;4761;49.490;10.908;2022-07-17T11:29:43;24.30;45.10
9446;DHT22;4761;49.490;10.908;2022-07-17T11:32:09;24.30;45.10
9446;DHT22;4761;49.490;10.908;2022-07-17T11:34:34;24.20;45.00
9446;DHT22;4761;49.490;10.908;2022-07-17T11:37:02;24.20;45.00
9446;DHT22;4761;49.490;10.908;2022-07-17T11:39:38;24.30;45.00
9446;DHT22;4761;49.490;10.908;2022-07-17T11:42:07;24.20;45.00
9446;DHT22;4761;49.490;10.908;2022-07-17T11:44:33;24.30;45.00
9446;DHT22;4761;49.490;10.908;2022-07-17T11:46:59;24.30;45.00
9446;DHT22;4761;49.490;10.908;2022-07-17T11:49:30;24.30;45.00
9446;DHT22;4761;49.490;10.908;2022-07-17T11:52:10;24.30;44.90
9446;DHT22;4761;49.490;10.908;2022-07-17T11:54:50;24.40;44.90
9446;DHT22;4761;49.490;10.908;2022-07-17T11:57:17;24.40;44.90
9446;DHT22;4761;49.490;10.908;2022-07-17T11:59:43;24.30;44.90
9446;DHT22;4761;49.490;10.908;2022-07-17T12:02:11;24.30;44.90
9446;DHT22;4761;49.490;10.908;2022-07-17T12:04:57;24.30;44.90
9446;DHT22;4761;49.490;10.908;2022-07-17T12:07:44;24.30;44.90
9446;DHT22;4761;49.490;10.908;2022-07-17T12:10:18;24.30;44.80
9446;DHT22;4761;49.490;10.908;2022-07-17T12:12:59;24.30;44.80
9446;DHT22;4761;49.490;10.908;2022-07-17T12:15:46;24.30;44.80
9446;DHT22;4761;49.490;10.908;2022-07-17T12:18:22;24.30;44.80
9446;DHT22;4761;49.490;10.908;2022-07-17T12:20:50;24.30;44.80
9446;DHT22;4761;49.490;10.908;2022-07-17T12:23:32;24.40;44.90
9446;DHT22;4761;49.490;10.908;2022-07-17T12:26:05;24.40;44.80
9446;DHT22;4761;49.490;10.908;2022-07-17T12:28:32;24.30;44.70
9446;DHT22;4761;49.490;10.908;2022-07-17T12:30:57;24.40;44.80
9446;DHT22;4761;49.490;10.908;2022-07-17T12:33:23;24.30;44.70
9446;DHT22;4761;49.490;10.908;2022-07-17T12:35:48;24.40;44.80
9446;DHT22;4761;49.490;10.908;2022-07-17T12:38:14;24.40;44.80
9446;DHT22;4761;49.490;10.908;2022-07-17T12:40:40;24.40;44.70
9446;DHT22;4761;49.490;10.908;2022-07-17T12:43:07;24.40;44.70
9446;DHT22;4761;49.490;10.908;2022-07-17T12:45:33;24.40;44.80
9446;DHT22;4761;49.490;10.908;2022-07-17T12:47:58;24.40;44.70
9446;DHT22;4761;49.490;10.908;2022-07-17T12:50:24;24.40;44.80
9446;DHT22;4761;49.490;10.908;2022-07-17T12:52:49;24.40;44.70
9446;DHT22;4761;49.490;10.908;2022-07-17T12:55:15;24.40;44.70
9446;DHT22;4761;49.490;10.908;2022-07-17T12:57:40;24.40;44.70
9446;DHT22;4761;49.490;10.908;2022-07-17T13:00:06;24.40;44.70
9446;DHT22;4761;49.490;10.908;2022-07-17T13:02:33;24.40;44.70
9446;DHT22;4761;49.490;10.908;2022-07-17T13:04:58;24.40;44.60
9446;DHT22;4761;49.490;10.908;2022-07-17T13:07:24;24.40;44.60
9446;DHT22;4761;49.490;10.908;2022-07-17T13:09:49;24.40;44.60
9446;DHT22;4761;49.490;10.908;2022-07-17T13:12:15;24.40;44.60
9446;DHT22;4761;49.490;10.908;2022-07-17T13:14:40;24.40;44.60
9446;DHT22;4761;49.490;10.908;2022-07-17T13:17:06;24.50;44.70
9446;DHT22;4761;49.490;10.908;2022-07-17T13:19:32;24.50;44.60
9446;DHT22;4761;49.490;10.908;2022-07-17T13:21:57;24.50;44.60
9446;DHT22;4761;49.490;10.908;2022-07-17T13:24:23;24.50;41.20
9446;DHT22;4761;49.490;10.908;2022-07-17T13:26:49;24.40;39.20
9446;DHT22;4761;49.490;10.908;2022-07-17T13:29:14;24.30;37.80
9446;DHT22;4761;49.490;10.908;2022-07-17T13:31:40;24.30;35.70
9446;DHT22;4761;49.490;10.908;2022-07-17T13:34:05;24.30;36.70
9446;DHT22;4761;49.490;10.908;2022-07-17T13:36:31;24.30;36.40
9446;DHT22;4761;49.490;10.908;2022-07-17T13:38:56;24.30;36.40
9446;DHT22;4761;49.490;10.908;2022-07-17T13:41:22;24.40;36.70
9446;DHT22;4761;49.490;10.908;2022-07-17T13:43:48;24.40;36.50
9446;DHT22;4761;49.490;10.908;2022-07-17T13:46:13;24.40;36.30
9446;DHT22;4761;49.490;10.908;2022-07-17T13:48:39;24.40;36.10
9446;DHT22;4761;49.490;10.908;2022-07-17T13:51:05;24.40;37.30
9446;DHT22;4761;49.490;10.908;2022-07-17T13:53:31;24.40;36.90
9446;DHT22;4761;49.490;10.908;2022-07-17T13:55:57;24.40;39.60
9446;DHT22;4761;49.490;10.908;2022-07-17T13:58:23;24.60;44.50
9446;DHT22;4761;49.490;10.908;2022-07-17T14:00:48;24.60;44.60
9446;DHT22;4761;49.490;10.908;2022-07-17T14:03:14;24.60;44.70
9446;DHT22;4761;49.490;10.908;2022-07-17T14:05:39;24.50;38.50
9446;DHT22;4761;49.490;10.908;2022-07-17T14:08:05;24.80;27.80
9446;DHT22;4761;49.490;10.908;2022-07-17T14:10:31;24.70;31.30
9446;DHT22;4761;49.490;10.908;2022-07-17T14:12:57;24.60;35.00
9446;DHT22;4761;49.490;10.908;2022-07-17T14:15:22;24.50;34.30
9446;DHT22;4761;49.490;10.908;2022-07-17T14:17:48;24.50;34.00
9446;DHT22;4761;49.490;10.908;2022-07-17T14:20:13;24.50;34.20
9446;DHT22;4761;49.490;10.908;2022-07-17T14:22:39;24.50;33.00
9446;DHT22;4761;49.490;10.908;2022-07-17T14:25:05;24.50;32.40
9446;DHT22;4761;49.490;10.908;2022-07-17T14:27:31;24.50;31.70
9446;DHT22;4761;49.490;10.908;2022-07-17T14:29:56;24.50;32.90
9446;DHT22;4761;49.490;10.908;2022-07-17T14:32:22;24.50;33.40
9446;DHT22;4761;49.490;10.908;2022-07-17T14:34:47;24.50;33.00
9446;DHT22;4761;49.490;10.908;2022-07-17T14:37:13;24.50;34.20
9446;DHT22;4761;49.490;10.908;2022-07-17T14:39:38;24.60;35.30
9446;DHT22;4761;49.490;10.908;2022-07-17T14:42:04;24.50;35.20
9446;DHT22;4761;49.490;10.908;2022-07-17T14:44:30;24.50;35.10
9446;DHT22;4761;49.490;10.908;2022-07-17T14:46:57;24.50;35.00
9446;DHT22;4761;49.490;10.908;2022-07-17T14:49:24;24.50;35.20
9446;DHT22;4761;49.490;10.908;2022-07-17T14:51:49;24.50;35.00
9446;DHT22;4761;49.490;10.908;2022-07-17T14:54:15;24.60;36.00
9446;DHT22;4761;49.490;10.908;2022-07-17T14:56:40;24.50;35.70
9446;DHT22;4761;49.490;10.908;2022-07-17T14:59:06;24.50;35.80
9446;DHT22;4761;49.490;10.908;2022-07-17T15:01:31;24.60;36.00
9446;DHT22;4761;49.490;10.908;2022-07-17T15:03:58;24.50;36.00
9446;DHT22;4761;49.490;10.908;2022-07-17T15:06:24;24.60;36.20
9446;DHT22;4761;49.490;10.908;2022-07-17T15:08:50;24.50;36.30
9446;DHT22;4761;49.490;10.908;2022-07-17T15:11:15;24.60;36.80
9446;DHT22;4761;49.490;10.908;2022-07-17T15:13:41;24.50;36.50
9446;DHT22;4761;49.490;10.908;2022-07-17T15:16:07;24.50;36.60
9446;DHT22;4761;49.490;10.908;2022-07-17T15:18:32;24.60;36.90
9446;DHT22;4761;49.490;10.908;2022-07-17T15:20:58;24.60;37.70
9446;DHT22;4761;49.490;10.908;2022-07-17T15:23:23;24.60;38.00
9446;DHT22;4761;49.490;10.908;2022-07-17T15:25:49;24.60;38.20
9446;DHT22;4761;49.490;10.908;2022-07-17T15:28:15;24.60;38.20
9446;DHT22;4761;49.490;10.908;2022-07-17T15:30:40;24.60;39.20
9446;DHT22;4761;49.490;10.908;2022-07-17T15:33:06;24.50;39.10
9446;DHT22;4761;49.490;10.908;2022-07-17T15:35:31;24.60;38.60
9446;DHT22;4761;49.490;10.908;2022-07-17T15:37:57;24.60;38.60
9446;DHT22;4761;49.490;10.908;2022-07-17T15:40:24;24.60;38.80
9446;DHT22;4761;49.490;10.908;2022-07-17T15:42:50;24.60;38.80
9446;DHT22;4761;49.490;10.908;2022-07-17T15:45:16;24.60;39.10
9446;DHT22;4761;49.490;10.908;2022-07-17T15:47:45;24.60;39.00
9446;DHT22;4761;49.490;10.908;2022-07-17T15:50:10;24.60;38.90